Time;durP1;ratioP1;P1;durP2;ratioP2;P2;SDS_P1;SDS_P2;PMS_P1;PMS_P2;Temp;Humidity;BMP_temperature;BMP_pressure;BME280_temperature;BME280_humidity;BME280_pressure;Samples;Min_cycle;Max_cycle;Signal;HPM_P1;HPM_P2
2020/12/12 00:00:35;;;;;;;30.42;19.73;;;4.50;99.90;;;;;;5020710;28;20093;-93
2020/12/12 00:03:01;;;;;;;30.83;17.88;;;4.50;99.90;;;;;;5028126;28;20029;-93
2020/12/12 00:05:30;;;;;;;32.00;19.40;;;4.50;99.90;;;;;;5056868;28;20116;-93
2020/12/12 00:07:56;;;;;;;39.20;22.45;;;4.50;99.90;;;;;;5038553;28;20068;-95
2020/12/12 00:10:26;;;;;;;31.83;19.95;;;4.50;99.90;;;;;;5039039;28;20060;-94
2020/12/12 00:12:52;;;;;;;29.35;19.15;;;4.50;99.90;;;;;;5038056;28;20116;-93
2020/12/12 00:15:18;;;;;;;31.98;19.65;;;4.50;99.90;;;;;;5037960;28;20035;-94
2020/12/12 00:17:44;;;;;;;30.10;18.55;;;4.50;99.90;;;;;;5038011;28;20049;-95
2020/12/12 00:20:18;;;;;;;34.78;21.27;;;4.50;99.90;;;;;;5055651;28;20056;-94
2020/12/12 00:22:44;;;;;;;32.88;19.10;;;4.50;99.90;;;;;;5056419;28;20053;-94
2020/12/12 00:25:10;;;;;;;33.22;19.38;;;4.50;99.90;;;;;;5034316;28;20446;-95
2020/12/12 00:27:36;;;;;;;30.33;19.30;;;4.50;99.90;;;;;;5034261;28;20042;-94
2020/12/12 00:30:04;;;;;;;33.58;19.90;;;4.60;99.90;;;;;;5034173;28;20083;-95
2020/12/12 00:32:34;;;;;;;32.13;18.98;;;4.50;99.90;;;;;;5035720;28;20744;-93
2020/12/12 00:35:00;;;;;;;30.58;17.98;;;4.60;99.90;;;;;;5036105;28;20037;-93
2020/12/12 00:37:28;;;;;;;35.20;19.92;;;4.50;99.90;;;;;;5018593;28;20041;-94
2020/12/12 00:39:54;;;;;;;33.97;18.75;;;4.60;99.90;;;;;;5034781;28;20042;-93
2020/12/12 00:42:19;;;;;;;29.27;17.65;;;4.50;99.90;;;;;;5036281;28;20419;-93
2020/12/12 00:44:48;;;;;;;34.40;20.80;;;4.60;99.90;;;;;;5035018;28;20083;-93
2020/12/12 00:47:18;;;;;;;31.05;19.60;;;4.50;99.90;;;;;;5035255;28;20029;-94
2020/12/12 00:49:44;;;;;;;32.80;19.17;;;4.60;99.90;;;;;;5035444;28;20034;-94
2020/12/12 00:52:10;;;;;;;35.45;19.98;;;4.60;99.90;;;;;;5034250;28;20707;-94
2020/12/12 00:54:37;;;;;;;33.00;19.25;;;4.60;99.90;;;;;;5035920;28;20018;-95
2020/12/12 00:57:03;;;;;;;35.55;19.63;;;4.60;99.90;;;;;;5024849;28;20034;-94
2020/12/12 00:59:29;;;;;;;33.75;20.20;;;4.60;99.90;;;;;;5026027;28;20029;-93
2020/12/12 01:01:55;;;;;;;35.33;20.92;;;4.60;99.90;;;;;;5036018;28;20013;-92
2020/12/12 01:04:22;;;;;;;40.25;23.55;;;4.50;99.90;;;;;;5035450;28;20013;-94
2020/12/12 01:06:49;;;;;;;38.97;22.40;;;4.60;99.90;;;;;;5034404;28;20481;-94
2020/12/12 01:09:18;;;;;;;40.25;22.65;;;4.60;99.90;;;;;;5033618;28;20052;-94
2020/12/12 01:11:44;;;;;;;44.25;23.80;;;4.60;99.90;;;;;;5034214;28;20022;-93
2020/12/12 01:14:10;;;;;;;40.15;23.60;;;4.60;99.90;;;;;;5034450;28;20032;-93
2020/12/12 01:16:38;;;;;;;42.05;23.20;;;4.60;99.90;;;;;;5034613;28;20060;-93
2020/12/12 01:19:07;;;;;;;37.33;21.77;;;4.60;99.90;;;;;;5035433;28;20362;-95
2020/12/12 01:21:33;;;;;;;41.15;22.63;;;4.60;99.90;;;;;;5034590;28;20042;-94
2020/12/12 01:24:07;;;;;;;41.58;22.52;;;4.70;99.90;;;;;;5035177;28;20128;-93
2020/12/12 01:26:46;;;;;;;40.85;22.85;;;4.70;99.90;;;;;;5037927;28;20025;-94
2020/12/12 01:29:53;;;;;;;39.78;22.23;;;4.70;99.90;;;;;;5036442;28;20067;-94
2020/12/12 01:32:23;;;;;;;39.60;23.13;;;4.70;99.90;;;;;;5054575;28;20026;-96
2020/12/12 01:34:54;;;;;;;35.55;20.77;;;4.70;99.90;;;;;;5040101;28;20025;-95
2020/12/12 01:37:31;;;;;;;36.72;21.75;;;4.70;99.90;;;;;;5041577;28;20169;-95
2020/12/12 01:40:01;;;;;;;37.95;22.33;;;4.70;99.90;;;;;;5041760;28;20055;-95
2020/12/12 01:42:31;;;;;;;49.65;29.13;;;4.70;99.90;;;;;;5041041;28;20036;-95
2020/12/12 01:45:00;;;;;;;42.88;26.42;;;4.60;99.90;;;;;;5039936;28;20040;-95
2020/12/12 01:47:29;;;;;;;40.00;23.52;;;4.70;99.90;;;;;;5057471;28;20040;-95
2020/12/12 01:49:55;;;;;;;41.78;25.13;;;4.70;99.90;;;;;;5040261;28;20029;-95
2020/12/12 01:52:24;;;;;;;41.33;23.95;;;4.70;99.90;;;;;;5039752;28;20116;-94
2020/12/12 01:54:56;;;;;;;39.95;22.70;;;4.70;99.90;;;;;;5039889;28;20526;-95
2020/12/12 01:57:25;;;;;;;38.38;22.02;;;4.70;99.90;;;;;;5039349;28;20060;-94
2020/12/12 02:00:01;;;;;;;38.42;21.75;;;4.70;99.90;;;;;;5039208;28;20029;-93
2020/12/12 02:02:27;;;;;;;39.45;22.27;;;4.70;99.90;;;;;;5039370;28;20083;-94
2020/12/12 02:04:57;;;;;;;36.22;20.30;;;4.70;99.90;;;;;;5038606;28;20111;-95
2020/12/12 02:07:23;;;;;;;35.40;20.92;;;4.70;99.90;;;;;;5018755;28;20069;-95
2020/12/12 02:09:52;;;;;;;38.92;22.20;;;4.70;99.90;;;;;;5026289;28;20116;-95
2020/12/12 02:12:18;;;;;;;33.53;19.08;;;4.70;99.90;;;;;;5038928;28;20036;-94
2020/12/12 02:14:47;;;;;;;38.45;22.15;;;4.70;99.90;;;;;;5038402;28;20059;-93
2020/12/12 02:17:17;;;;;;;43.08;23.50;;;4.70;99.90;;;;;;5039122;28;20048;-94
2020/12/12 02:19:43;;;;;;;35.85;21.13;;;4.70;99.90;;;;;;5037320;28;20029;-93
2020/12/12 02:22:09;;;;;;;37.13;21.70;;;4.70;99.90;;;;;;5038012;28;20044;-94
2020/12/12 02:24:46;;;;;;;44.03;24.33;;;4.80;99.90;;;;;;5049947;28;20060;-94
2020/12/12 02:27:14;;;;;;;39.85;22.50;;;4.70;99.90;;;;;;5043363;28;20100;-94
2020/12/12 02:29:49;;;;;;;43.92;25.15;;;4.80;99.90;;;;;;5060510;28;20037;-93
2020/12/12 02:32:16;;;;;;;38.95;22.67;;;4.70;99.90;;;;;;5046638;28;20084;-95
2020/12/12 02:34:42;;;;;;;40.70;23.13;;;4.70;99.90;;;;;;5046023;28;20037;-94
2020/12/12 02:37:08;;;;;;;37.35;21.60;;;4.70;99.90;;;;;;5041954;28;20023;-93
2020/12/12 02:39:34;;;;;;;37.95;19.98;;;4.80;99.90;;;;;;5044606;28;20043;-93
2020/12/12 02:41:59;;;;;;;39.25;23.15;;;4.80;99.90;;;;;;5032506;28;20021;-94
2020/12/12 02:44:28;;;;;;;38.17;21.80;;;4.80;99.90;;;;;;5022009;28;20033;-93
2020/12/12 02:46:57;;;;;;;37.92;22.23;;;4.80;99.90;;;;;;5053201;28;20037;-92
2020/12/12 02:49:23;;;;;;;35.47;20.42;;;4.80;99.90;;;;;;5025729;28;20447;-93
2020/12/12 02:51:49;;;;;;;33.08;19.85;;;4.80;99.90;;;;;;5031876;28;20049;-95
2020/12/12 02:54:18;;;;;;;37.25;21.98;;;4.80;99.90;;;;;;5021362;28;20034;-96
2020/12/12 02:56:45;;;;;;;33.47;20.27;;;4.80;99.90;;;;;;5045282;28;20042;-94
2020/12/12 02:59:11;;;;;;;33.15;20.02;;;4.80;99.90;;;;;;5037115;28;20079;-93
2020/12/12 03:01:53;;;;;;;32.42;19.63;;;4.80;99.90;;;;;;5032878;28;20040;-94
2020/12/12 03:04:18;;;;;;;32.42;20.15;;;4.80;99.90;;;;;;5037213;28;20109;-95
2020/12/12 03:06:44;;;;;;;39.05;21.65;;;4.80;99.90;;;;;;5037700;28;20053;-94
2020/12/12 03:09:10;;;;;;;36.60;20.90;;;4.80;99.90;;;;;;5055325;28;20029;-94
2020/12/12 03:11:37;;;;;;;37.20;22.13;;;4.90;99.90;;;;;;5037584;28;20052;-94
2020/12/12 03:14:03;;;;;;;36.92;22.27;;;4.90;99.90;;;;;;5037740;28;20385;-94
2020/12/12 03:16:29;;;;;;;36.38;20.98;;;4.80;99.90;;;;;;5038031;28;20547;-94
2020/12/12 03:18:58;;;;;;;41.10;23.83;;;4.90;99.90;;;;;;5021347;28;20059;-94
2020/12/12 03:21:31;;;;;;;36.55;23.05;;;4.80;99.90;;;;;;5038158;28;20491;-95
2020/12/12 03:23:57;;;;;;;40.05;23.65;;;4.80;99.90;;;;;;5036773;28;20045;-94
2020/12/12 03:26:26;;;;;;;39.80;22.60;;;4.90;99.90;;;;;;5055573;28;20028;-95
2020/12/12 03:28:55;;;;;;;37.13;21.98;;;4.90;99.90;;;;;;5037998;28;20037;-95
2020/12/12 03:31:26;;;;;;;36.30;20.88;;;4.90;99.90;;;;;;5037480;28;20040;-96
2020/12/12 03:33:51;;;;;;;38.67;21.40;;;4.90;99.90;;;;;;5037674;28;20107;-96
2020/12/12 03:36:20;;;;;;;35.22;19.95;;;4.90;99.90;;;;;;5055286;28;20040;-94
2020/12/12 03:38:46;;;;;;;34.55;20.75;;;4.90;99.90;;;;;;5055235;28;20560;-96
2020/12/12 03:41:20;;;;;;;36.08;20.10;;;4.90;99.90;;;;;;5037531;28;20118;-95
2020/12/12 03:43:55;;;;;;;33.22;20.25;;;4.90;99.90;;;;;;5038076;28;20388;-96
2020/12/12 03:46:21;;;;;;;33.88;19.25;;;4.90;99.90;;;;;;5038232;28;20032;-95
2020/12/12 03:48:47;;;;;;;31.40;19.10;;;4.90;99.90;;;;;;5055297;28;20029;-96
2020/12/12 03:51:13;;;;;;;35.88;19.77;;;4.90;99.90;;;;;;5037779;28;20025;-96
2020/12/12 03:53:39;;;;;;;31.95;19.33;;;4.90;99.90;;;;;;5037199;28;20035;-95
2020/12/12 03:56:06;;;;;;;29.90;17.40;;;4.90;99.90;;;;;;5037677;28;20021;-95
2020/12/12 03:58:35;;;;;;;31.05;17.95;;;4.90;99.90;;;;;;5038366;28;20033;-96
2020/12/12 04:01:00;;;;;;;30.65;18.73;;;4.90;99.90;;;;;;5038481;28;20036;-96
2020/12/12 04:03:28;;;;;;;33.13;20.58;;;4.90;99.90;;;;;;5037524;28;20581;-96
2020/12/12 04:05:55;;;;;;;33.45;19.23;;;5.00;99.90;;;;;;5036798;28;20116;-95
2020/12/12 04:08:23;;;;;;;31.13;19.13;;;5.00;99.90;;;;;;5037128;28;20104;-96
2020/12/12 04:10:49;;;;;;;31.05;18.95;;;5.00;99.90;;;;;;5037968;28;20021;-95
2020/12/12 04:13:15;;;;;;;33.95;20.10;;;5.00;99.90;;;;;;5037210;28;20025;-96
2020/12/12 04:15:43;;;;;;;35.08;20.67;;;5.00;99.90;;;;;;5037909;28;20037;-96
2020/12/12 04:18:09;;;;;;;32.72;19.70;;;5.00;99.90;;;;;;5037430;28;20025;-96
2020/12/12 04:20:35;;;;;;;34.88;19.95;;;5.00;99.90;;;;;;5037429;28;20170;-96
2020/12/12 04:23:01;;;;;;;30.80;17.40;;;5.00;99.90;;;;;;5037529;28;20025;-95
2020/12/12 04:25:32;;;;;;;30.88;19.05;;;5.00;99.90;;;;;;5037412;28;20049;-95
2020/12/12 04:28:02;;;;;;;29.35;18.75;;;5.00;99.90;;;;;;5037387;28;20131;-96
2020/12/12 04:30:30;;;;;;;34.70;19.45;;;5.10;99.90;;;;;;5054707;28;20024;-95
2020/12/12 04:33:02;;;;;;;32.38;20.15;;;5.00;99.90;;;;;;5037240;28;20033;-95
2020/12/12 04:35:28;;;;;;;35.50;19.27;;;5.00;99.90;;;;;;5054466;28;20035;-94
2020/12/12 04:37:54;;;;;;;33.90;19.48;;;5.00;99.90;;;;;;5037562;28;20032;-94
2020/12/12 04:40:24;;;;;;;33.40;20.42;;;5.00;99.90;;;;;;5037019;28;20071;-95
2020/12/12 04:43:00;;;;;;;33.95;20.65;;;5.00;99.90;;;;;;5036799;28;20036;-94
2020/12/12 04:45:36;;;;;;;32.75;19.88;;;5.00;99.90;;;;;;5039996;28;20066;-94
2020/12/12 04:48:17;;;;;;;30.40;17.67;;;5.00;99.90;;;;;;5056825;28;20538;-94
2020/12/12 04:50:43;;;;;;;32.50;18.13;;;5.00;99.90;;;;;;5040885;28;20115;-95
2020/12/12 04:53:21;;;;;;;32.13;19.90;;;5.00;99.90;;;;;;5040023;28;20470;-94
2020/12/12 04:55:52;;;;;;;34.63;19.65;;;5.10;99.90;;;;;;5040781;28;20052;-94
2020/12/12 04:58:23;;;;;;;35.25;19.35;;;5.00;99.90;;;;;;5040830;28;20029;-94
2020/12/12 05:00:52;;;;;;;35.30;20.58;;;5.10;99.90;;;;;;5040472;28;20029;-94
2020/12/12 05:03:20;;;;;;;31.92;19.83;;;5.10;99.90;;;;;;5040777;28;20021;-93
2020/12/12 05:05:46;;;;;;;34.40;20.40;;;5.00;99.90;;;;;;5040464;28;20037;-93
2020/12/12 05:08:13;;;;;;;32.13;19.00;;;5.10;99.90;;;;;;5039852;28;20029;-94
2020/12/12 05:10:54;;;;;;;30.23;18.02;;;5.10;99.90;;;;;;5040355;28;20048;-94
2020/12/12 05:13:28;;;;;;;33.85;19.10;;;5.10;99.90;;;;;;5040161;28;20388;-95
2020/12/12 05:15:56;;;;;;;35.05;20.58;;;5.10;99.90;;;;;;5039924;28;20056;-93
2020/12/12 05:18:23;;;;;;;35.65;19.33;;;5.10;99.90;;;;;;5057747;28;20111;-93
2020/12/12 05:20:50;;;;;;;34.05;19.15;;;5.10;99.90;;;;;;5040344;28;20025;-93
2020/12/12 05:23:25;;;;;;;33.08;19.65;;;5.10;99.90;;;;;;5039944;28;20033;-92
2020/12/12 05:25:52;;;;;;;34.20;18.60;;;5.10;99.90;;;;;;5019957;28;20116;-94
2020/12/12 05:28:20;;;;;;;29.77;17.75;;;5.10;99.90;;;;;;5037530;28;20477;-94
2020/12/12 05:30:48;;;;;;;31.50;18.77;;;5.10;99.90;;;;;;5019993;28;20036;-93
2020/12/12 05:33:20;;;;;;;29.75;18.00;;;5.10;99.90;;;;;;5020035;28;20017;-95
2020/12/12 05:35:47;;;;;;;30.73;18.67;;;5.20;99.90;;;;;;5020285;28;20025;-94
2020/12/12 05:38:13;;;;;;;27.30;17.27;;;5.10;99.90;;;;;;5020966;28;20031;-94
2020/12/12 05:40:41;;;;;;;29.55;18.05;;;5.10;99.90;;;;;;5019934;28;20051;-92
2020/12/12 05:43:11;;;;;;;31.83;18.60;;;5.10;99.90;;;;;;5019205;28;20440;-94
2020/12/12 05:45:41;;;;;;;30.02;18.08;;;5.20;99.90;;;;;;5020027;28;20412;-93
2020/12/12 05:48:12;;;;;;;30.52;16.80;;;5.10;99.90;;;;;;5019775;28;20040;-93
2020/12/12 05:50:38;;;;;;;23.17;15.10;;;5.20;99.90;;;;;;5019792;28;20465;-94
2020/12/12 05:53:05;;;;;;;27.10;17.00;;;5.20;99.90;;;;;;5019464;28;20029;-95
2020/12/12 05:55:33;;;;;;;28.02;17.80;;;5.10;99.90;;;;;;5018066;28;20018;-94
2020/12/12 05:57:59;;;;;;;30.75;18.60;;;5.20;99.90;;;;;;5019048;28;20120;-94
2020/12/12 06:00:28;;;;;;;28.73;17.25;;;5.20;99.90;;;;;;5019179;28;20096;-95
2020/12/12 06:03:05;;;;;;;28.40;16.95;;;5.20;99.90;;;;;;5019516;28;20029;-93
2020/12/12 06:05:46;;;;;;;28.63;16.48;;;5.20;99.90;;;;;;5029982;28;20397;-96
2020/12/12 06:08:19;;;;;;;27.45;16.25;;;5.20;99.90;;;;;;5019230;28;20026;-95
2020/12/12 06:10:50;;;;;;;29.08;17.38;;;5.30;99.90;;;;;;5019456;28;20469;-95
2020/12/12 06:13:18;;;;;;;34.70;18.88;;;5.30;99.90;;;;;;5036821;28;20029;-94
2020/12/12 06:15:50;;;;;;;43.33;24.67;;;5.30;99.90;;;;;;5019385;28;20032;-94
2020/12/12 06:18:47;;;;;;;38.13;22.73;;;5.30;99.90;;;;;;5019114;28;20076;-95
2020/12/12 06:21:14;;;;;;;46.40;25.35;;;5.20;99.90;;;;;;5018839;28;20069;-95
2020/12/12 06:23:41;;;;;;;40.70;24.35;;;5.20;99.90;;;;;;5021584;28;20128;-96
2020/12/12 06:26:08;;;;;;;41.08;22.17;;;5.20;99.90;;;;;;5022525;28;20025;-96
2020/12/12 06:28:43;;;;;;;37.22;22.27;;;5.30;99.90;;;;;;5039685;28;20116;-96
2020/12/12 06:31:12;;;;;;;47.15;27.15;;;5.30;99.90;;;;;;5038729;28;20028;-96
2020/12/12 06:33:59;;;;;;;46.50;26.52;;;5.30;99.90;;;;;;5038451;28;20032;-95
2020/12/12 06:36:30;;;;;;;40.00;23.77;;;5.30;99.90;;;;;;5055466;28;20048;-95
2020/12/12 06:39:18;;;;;;;40.28;23.88;;;5.30;99.90;;;;;;5038602;28;20045;-95
2020/12/12 06:41:44;;;;;;;40.45;22.52;;;5.30;99.90;;;;;;5038243;28;20049;-96
2020/12/12 06:44:10;;;;;;;38.25;23.02;;;5.30;99.90;;;;;;5038527;28;20031;-96
2020/12/12 06:46:56;;;;;;;37.10;22.02;;;5.30;99.90;;;;;;5038677;28;20029;-96
2020/12/12 06:49:22;;;;;;;35.15;20.75;;;5.30;99.90;;;;;;5038037;28;20032;-96
2020/12/12 06:51:52;;;;;;;32.75;19.35;;;5.30;99.90;;;;;;5021845;28;20033;-96
2020/12/12 06:54:20;;;;;;;32.00;18.65;;;5.40;99.90;;;;;;5038452;28;20040;-94
2020/12/12 06:56:49;;;;;;;31.65;18.45;;;5.40;99.90;;;;;;5038461;28;20025;-95
2020/12/12 06:59:28;;;;;;;32.58;18.60;;;5.40;99.90;;;;;;5038238;28;20031;-96
2020/12/12 07:01:59;;;;;;;30.10;18.42;;;5.40;99.90;;;;;;5038893;28;20112;-94
2020/12/12 07:04:30;;;;;;;30.35;17.83;;;5.40;99.90;;;;;;5033576;28;20025;-95
2020/12/12 07:07:19;;;;;;;33.90;19.42;;;5.40;99.90;;;;;;5039255;28;20072;-93
2020/12/12 07:09:45;;;;;;;30.15;17.40;;;5.50;99.90;;;;;;5058685;28;20052;-93
2020/12/12 07:12:11;;;;;;;27.27;15.82;;;5.50;99.90;;;;;;5058678;28;20005;-93
2020/12/12 07:14:37;;;;;;;30.65;17.08;;;5.50;99.90;;;;;;5076575;28;20029;-96
2020/12/12 07:17:05;;;;;;;32.83;17.85;;;5.50;99.90;;;;;;5060390;28;20025;-94
2020/12/12 07:19:36;;;;;;;31.02;17.40;;;5.50;99.90;;;;;;5077835;28;20097;-94
2020/12/12 07:22:08;;;;;;;34.80;18.63;;;5.50;99.90;;;;;;5060006;28;20017;-94
2020/12/12 07:24:35;;;;;;;37.00;20.50;;;5.50;99.90;;;;;;5037339;28;20081;-94
2020/12/12 07:27:06;;;;;;;32.13;17.85;;;5.50;99.90;;;;;;5055902;28;20127;-93
2020/12/12 07:29:48;;;;;;;33.97;17.38;;;5.50;99.90;;;;;;5056914;28;20029;-95
2020/12/12 07:32:14;;;;;;;33.95;15.75;;;5.60;99.90;;;;;;5038989;28;20087;-95
2020/12/12 07:34:43;;;;;;;33.08;15.98;;;5.50;99.90;;;;;;5038040;28;20044;-95
2020/12/12 07:37:11;;;;;;;35.95;15.68;;;5.60;99.90;;;;;;5038122;28;20037;-96
2020/12/12 07:39:43;;;;;;;31.45;15.68;;;5.60;99.90;;;;;;5038579;28;20096;-94
2020/12/12 07:42:11;;;;;;;27.77;14.55;;;5.60;99.90;;;;;;5038410;28;20432;-95
2020/12/12 07:45:55;;;;;;;24.63;14.60;;;5.70;99.90;;;;;;5038002;28;20029;-95
2020/12/12 07:47:47;;;;;;;35.20;14.15;;;5.60;99.90;;;;;;5044412;28;20123;-94
2020/12/12 07:50:16;;;;;;;34.60;14.73;;;5.70;99.90;;;;;;5055165;28;20025;-93
2020/12/12 07:52:47;;;;;;;27.33;15.13;;;5.70;99.90;;;;;;5037891;28;20025;-93
2020/12/12 07:55:20;;;;;;;35.92;15.93;;;5.70;99.90;;;;;;5037431;28;20040;-95
2020/12/12 07:57:51;;;;;;;32.97;15.00;;;5.70;99.90;;;;;;5037317;28;20049;-95
2020/12/12 08:00:27;;;;;;;32.08;14.27;;;5.70;99.90;;;;;;5037118;28;20530;-93
2020/12/12 08:02:59;;;;;;;28.05;14.05;;;5.70;99.90;;;;;;5037347;28;20029;-95
2020/12/12 08:05:29;;;;;;;31.45;14.50;;;5.70;99.90;;;;;;5037370;28;20064;-94
2020/12/12 08:07:58;;;;;;;34.38;15.15;;;5.70;99.90;;;;;;5037178;28;20025;-92
2020/12/12 08:10:24;;;;;;;29.30;14.75;;;5.70;99.90;;;;;;5037300;28;20366;-94
2020/12/12 08:12:51;;;;;;;34.47;15.40;;;5.70;99.90;;;;;;5037017;28;20028;-93
2020/12/12 08:15:35;;;;;;;;;;;;;;;;;;;;;
2020/12/12 08:18:14;;;;;;;35.50;15.57;;;5.70;99.90;;;;;;5058374;28;20112;-93
2020/12/12 08:20:46;;;;;;;34.22;15.27;;;5.80;99.90;;;;;;5041603;28;20029;-93
2020/12/12 08:23:15;;;;;;;29.88;13.80;;;5.80;99.90;;;;;;5041433;28;20104;-93
2020/12/12 08:25:43;;;;;;;53.13;17.30;;;5.80;99.90;;;;;;5040925;28;20385;-92
2020/12/12 08:28:12;;;;;;;39.85;15.75;;;5.80;99.90;;;;;;5040483;28;20037;-93
2020/12/12 08:30:50;;;;;;;48.60;17.50;;;5.80;99.90;;;;;;5040458;28;20029;-94
2020/12/12 08:33:20;;;;;;;36.90;15.52;;;5.80;99.90;;;;;;5040279;28;20071;-92
2020/12/12 08:36:23;;;;;;;;;;;;;;;;;;;;;
2020/12/12 08:38:57;;;;;;;39.25;15.45;;;5.80;99.90;;;;;;5058811;28;20032;-93
2020/12/12 08:41:35;;;;;;;38.63;15.57;;;5.80;99.90;;;;;;5040886;28;20021;-93
2020/12/12 08:44:06;;;;;;;40.20;15.60;;;5.90;99.90;;;;;;5040864;28;20544;-93
2020/12/12 08:46:38;;;;;;;38.55;15.27;;;5.90;99.90;;;;;;5058088;28;20460;-93
2020/12/12 08:49:13;;;;;;;57.00;16.60;;;5.90;99.90;;;;;;5040652;28;20033;-93
2020/12/12 08:51:53;;;;;;;35.05;16.52;;;5.90;99.90;;;;;;5057577;28;20025;-94
2020/12/12 08:54:24;;;;;;;44.00;16.40;;;6.00;99.90;;;;;;5040419;28;20025;-93
2020/12/12 08:56:51;;;;;;;42.47;16.15;;;5.90;99.90;;;;;;5058110;28;20028;-94
2020/12/12 08:59:26;;;;;;;38.17;16.08;;;6.00;99.90;;;;;;5040281;28;20045;-94
2020/12/12 09:02:00;;;;;;;43.45;17.00;;;6.00;99.90;;;;;;5040383;28;20044;-92
2020/12/12 09:04:30;;;;;;;44.45;17.80;;;6.10;99.90;;;;;;5039618;28;20132;-93
2020/12/12 09:07:03;;;;;;;44.92;17.88;;;6.00;99.90;;;;;;5040346;28;20052;-92
2020/12/12 09:09:33;;;;;;;43.47;17.08;;;6.10;99.90;;;;;;5058102;28;20083;-92
2020/12/12 09:12:08;;;;;;;41.58;17.25;;;6.10;99.90;;;;;;5039666;28;20021;-94
2020/12/12 09:14:40;;;;;;;44.00;18.73;;;6.10;99.90;;;;;;5040348;28;20021;-92
2020/12/12 09:17:16;;;;;;;47.42;19.02;;;6.10;99.90;;;;;;5040368;28;20120;-93
2020/12/12 09:19:43;;;;;;;41.03;16.83;;;6.00;99.90;;;;;;5039977;28;20022;-94
2020/12/12 09:22:13;;;;;;;48.70;21.25;;;6.10;99.90;;;;;;5057908;28;20115;-94
2020/12/12 09:24:39;;;;;;;64.43;20.65;;;6.10;99.90;;;;;;5057309;28;20097;-94
2020/12/12 09:27:05;;;;;;;66.22;26.08;;;6.10;99.90;;;;;;5039653;28;20128;-94
2020/12/12 09:29:31;;;;;;;61.03;24.13;;;6.10;99.90;;;;;;5039375;28;20087;-94
2020/12/12 09:32:02;;;;;;;61.55;23.17;;;6.10;99.90;;;;;;5057022;28;20159;-94
2020/12/12 09:34:31;;;;;;;49.17;20.30;;;6.20;99.90;;;;;;5039723;28;20028;-95
2020/12/12 09:36:59;;;;;;;55.97;21.33;;;6.10;99.90;;;;;;5039827;28;20033;-94
2020/12/12 09:39:25;;;;;;;56.22;22.98;;;6.20;99.90;;;;;;5057675;28;20028;-95
2020/12/12 09:41:58;;;;;;;62.42;26.52;;;6.20;99.90;;;;;;5027851;28;20048;-96
2020/12/12 09:44:28;;;;;;;59.60;23.73;;;6.20;99.90;;;;;;5019129;28;20033;-95
2020/12/12 09:47:22;;;;;;;47.67;21.58;;;6.20;99.90;;;;;;5033691;28;20022;-95
2020/12/12 09:49:47;;;;;;;60.35;23.20;;;6.20;99.90;;;;;;5018103;28;20033;-95
2020/12/12 09:52:13;;;;;;;53.55;24.00;;;6.20;99.90;;;;;;5015383;28;20462;-95
2020/12/12 09:54:47;;;;;;;66.93;22.90;;;6.20;99.90;;;;;;5015762;28;20036;-96
2020/12/12 09:57:13;;;;;;;47.55;20.80;;;6.30;99.90;;;;;;5015097;28;20029;-94
2020/12/12 09:59:42;;;;;;;48.83;22.15;;;6.30;99.90;;;;;;5017931;28;20064;-95
2020/12/12 10:02:07;;;;;;;68.63;25.58;;;6.30;99.90;;;;;;5020739;28;20105;-94
2020/12/12 10:04:39;;;;;;;74.50;27.45;;;6.30;99.90;;;;;;4999881;28;20076;-95
2020/12/12 10:07:11;;;;;;;59.47;25.30;;;6.30;99.90;;;;;;5008428;28;20091;-94
2020/12/12 10:09:43;;;;;;;58.08;22.50;;;6.30;99.90;;;;;;5015012;28;20053;-95
2020/12/12 10:12:11;;;;;;;60.78;26.42;;;6.40;99.90;;;;;;5009615;28;20079;-93
2020/12/12 10:14:49;;;;;;;55.40;23.73;;;6.40;99.90;;;;;;5013705;28;20386;-95
2020/12/12 10:17:14;;;;;;;55.22;23.27;;;6.40;99.90;;;;;;5017729;28;20025;-93
2020/12/12 10:19:43;;;;;;;50.55;20.63;;;6.40;99.90;;;;;;5015095;28;20022;-94
2020/12/12 10:22:23;;;;;;;62.95;20.95;;;6.50;99.90;;;;;;5014930;28;20026;-94
2020/12/12 10:25:00;;;;;;;55.08;23.10;;;6.50;99.90;;;;;;5027686;28;20052;-93
2020/12/12 10:27:37;;;;;;;56.65;20.58;;;6.60;99.90;;;;;;5039360;28;20032;-92
2020/12/12 10:30:20;;;;;;;;;;;;;;;;;;;;;
2020/12/12 10:32:50;;;;;;;54.85;21.52;;;6.60;99.90;;;;;;5017673;28;20040;-93
2020/12/12 10:35:40;;;;;;;;;;;;;;;;;;;;;
2020/12/12 10:38:13;;;;;;;65.63;24.92;;;6.60;99.90;;;;;;5035487;28;20039;-93
2020/12/12 10:40:48;;;;;;;72.97;28.10;;;6.60;99.90;;;;;;5018410;28;20028;-93
2020/12/12 10:43:17;;;;;;;72.63;25.92;;;6.60;99.90;;;;;;5040446;28;20065;-93
2020/12/12 10:45:46;;;;;;;66.95;24.23;;;6.70;99.90;;;;;;5048175;28;20020;-93
2020/12/12 10:48:12;;;;;;;62.55;23.90;;;6.70;99.90;;;;;;5051780;28;20036;-94
2020/12/12 10:50:38;;;;;;;70.13;26.25;;;6.70;99.90;;;;;;5054167;28;20530;-94
2020/12/12 10:53:07;;;;;;;60.40;23.70;;;6.70;99.90;;;;;;5054711;28;20027;-94
2020/12/12 10:55:34;;;;;;;63.97;24.67;;;6.70;99.90;;;;;;5054505;28;20115;-93
2020/12/12 10:58:02;;;;;;;56.90;21.38;;;6.70;99.90;;;;;;5051997;28;20048;-92
2020/12/12 11:00:50;;;;;;;60.67;22.95;;;6.70;99.90;;;;;;5053359;28;20051;-93
2020/12/12 11:03:45;;;;;;;46.90;20.13;;;6.80;99.90;;;;;;5052686;28;20157;-92
2020/12/12 11:06:26;;;;;;;56.60;18.88;;;6.90;99.90;;;;;;5038183;28;20025;-94
2020/12/12 11:09:28;;;;;;;;;;;;;;;;;;;;;
2020/12/12 11:12:28;;;;;;;43.65;18.25;;;6.90;99.90;;;;;;5032815;28;20045;-94
2020/12/12 11:14:59;;;;;;;46.30;17.10;;;6.90;99.90;;;;;;5051168;28;20466;-94
2020/12/12 11:17:29;;;;;;;43.53;17.40;;;6.90;99.90;;;;;;5051429;28;20457;-95
2020/12/12 11:20:35;;;;;;;47.40;20.25;;;7.00;99.90;;;;;;5051672;28;20100;-95
2020/12/12 11:23:15;;;;;;;51.72;19.05;;;7.00;99.90;;;;;;5050694;28;20423;-94
2020/12/12 11:25:44;;;;;;;45.85;17.90;;;7.10;99.90;;;;;;5052102;28;20060;-94
2020/12/12 11:28:09;;;;;;;43.90;18.98;;;7.10;99.90;;;;;;5042167;28;20066;-95
2020/12/12 11:30:35;;;;;;;50.50;18.63;;;7.10;99.90;;;;;;5036134;28;20064;-94
2020/12/12 11:33:19;;;;;;;52.67;19.13;;;7.10;99.90;;;;;;5029562;28;20076;-94
2020/12/12 11:36:10;;;;;;;52.22;21.17;;;7.20;99.90;;;;;;5037824;28;20028;-94
2020/12/12 11:44:47;;;;;;;56.35;24.02;;;7.20;99.90;;;;;;5076565;28;20044;-93
2020/12/12 11:47:29;;;;;;;64.05;25.83;;;7.30;99.90;;;;;;5042968;28;20045;-95
2020/12/12 11:50:11;;;;;;;56.38;25.20;;;7.30;99.90;;;;;;5039508;28;20025;-92
2020/12/12 11:52:44;;;;;;;68.18;27.27;;;7.30;99.90;;;;;;5037750;28;20021;-93
2020/12/12 11:55:23;;;;;;;63.58;24.98;;;7.30;99.90;;;;;;5036568;28;20029;-94
2020/12/12 11:57:49;;;;;;;54.35;24.00;;;7.30;99.90;;;;;;5054087;28;20028;-94
2020/12/12 12:00:43;;;;;;;52.42;23.58;;;7.30;99.90;;;;;;5036347;28;20517;-95
2020/12/12 12:03:29;;;;;;;49.67;22.60;;;7.30;99.90;;;;;;5046667;28;20089;-96
2020/12/12 12:05:55;;;;;;;53.47;22.85;;;7.40;99.90;;;;;;5037208;28;20068;-93
2020/12/12 12:13:59;;;;;;;47.67;22.33;;;7.40;99.90;;;;;;5054234;28;20025;-94
2020/12/12 12:16:36;;;;;;;53.35;23.83;;;7.40;99.90;;;;;;5036401;28;20028;-94
2020/12/12 12:19:15;;;;;;;50.80;22.20;;;7.40;99.90;;;;;;5036251;28;20032;-94
2020/12/12 12:21:48;;;;;;;58.08;25.10;;;7.50;99.90;;;;;;5036487;28;20104;-93
2020/12/12 12:24:18;;;;;;;;;;;7.50;99.90;;;;;;5035408;28;20049;-96
2020/12/12 12:27:07;;;;;;;60.45;25.80;;;7.50;99.90;;;;;;5048799;28;19962;-95
2020/12/12 12:29:36;;;;;;;53.70;22.52;;;7.60;99.90;;;;;;5016203;28;20049;-94
2020/12/12 12:32:02;;;;;;;55.58;22.95;;;7.50;99.90;;;;;;5016802;28;20049;-95
2020/12/12 12:34:29;;;;;;;52.13;21.27;;;7.60;99.90;;;;;;5015927;28;20174;-95
2020/12/12 12:40:33;;;;;;;59.30;23.42;;;7.60;99.90;;;;;;4998397;28;20040;-94
2020/12/12 12:43:04;;;;;;;65.15;24.42;;;7.70;99.90;;;;;;4996969;28;20110;-96
2020/12/12 12:45:48;;;;;;;72.70;27.00;;;7.70;99.90;;;;;;4978456;28;20030;-96
2020/12/12 12:48:32;;;;;;;71.53;25.58;;;7.70;99.90;;;;;;5012837;28;20050;-96
2020/12/12 12:51:04;;;;;;;78.40;28.60;;;7.70;99.90;;;;;;4996635;28;20057;-96
2020/12/12 12:53:38;;;;;;;100.07;32.05;;;7.70;99.90;;;;;;5021609;28;20059;-95
2020/12/12 12:56:10;;;;;;;98.18;31.92;;;7.70;99.90;;;;;;5023441;28;20044;-96
2020/12/12 13:06:29;;;;;;;;;;;;;;;;;;;;;
2020/12/12 13:12:35;;;;;;;71.72;25.70;;;7.80;99.90;;;;;;4928258;29;20108;-96
2020/12/12 13:18:57;;;;;;;;;;;;;;;;;;;;;
2020/12/12 13:22:16;;;;;;;56.70;22.35;;;7.80;99.90;;;;;;4914250;29;20100;-96
2020/12/12 13:24:49;;;;;;;62.17;23.10;;;7.90;99.90;;;;;;4932401;29;20139;-95
2020/12/12 13:27:31;;;;;;;61.97;22.67;;;7.90;99.90;;;;;;4941854;29;20083;-96
2020/12/12 13:30:34;;;;;;;60.17;21.02;;;7.90;99.90;;;;;;4959592;28;20062;-96
2020/12/12 13:33:04;;;;;;;64.97;23.80;;;7.90;99.90;;;;;;5041119;28;20051;-95
2020/12/12 13:42:06;;;;;;;70.63;22.20;;;8.00;99.90;;;;;;5036162;28;20480;-93
2020/12/12 13:45:02;;;;;;;;;;;;;;;;;;;;;